Time;durP1;ratioP1;P1;durP2;ratioP2;P2;SDS_P1;SDS_P2;PMS_P1;PMS_P2;Temp;Humidity;BMP_temperature;BMP_pressure;BME280_temperature;BME280_humidity;BME280_pressure;Samples;Min_cycle;Max_cycle;Signal;HPM_P1;HPM_P2
2022/08/10 11:50:48;;;;;;;3.30;1.80;;;;;;;23.58;78.32;102589.53;6261411;22;21019;31
2022/08/10 11:53:41;;;;;;;5.95;2.22;;;;;;;23.63;78.54;102584.13;6217280;23;20020;-77
2022/08/10 11:56:11;;;;;;;7.70;2.03;;;;;;;23.65;77.89;102571.81;6221104;23;20000;-80
2022/08/10 12:01:30;;;;;;;5.22;1.98;;;;;;;23.64;77.32;102563.78;6217146;23;20066;-79
2022/08/10 12:04:06;;;;;;;6.20;2.00;;;;;;;23.24;77.04;102526.16;6215670;23;20013;-80
2022/08/10 12:06:35;;;;;;;6.78;2.08;;;;;;;23.67;76.78;102568.78;6192007;23;20314;-79
2022/08/10 12:09:03;;;;;;;4.82;1.90;;;;;;;23.60;76.41;102559.88;6217760;23;20016;-80
2022/08/10 12:11:29;;;;;;;4.55;1.90;;;;;;;23.35;78.17;102530.81;6217036;23;20359;-80
2022/08/10 12:14:04;;;;;;;5.25;2.00;;;;;;;23.74;79.87;102577.78;6204044;23;20077;-79
2022/08/10 12:16:35;;;;;;;3.92;2.22;;;;;;;23.58;80.02;102578.53;6205477;23;20020;-80
2022/08/10 12:19:24;;;;;;;4.60;2.30;;;;;;;23.50;79.67;102570.66;6215208;23;20013;-80
2022/08/10 12:21:57;;;;;;;5.93;1.90;;;;;;;23.59;77.40;102574.69;6216973;23;20039;-79
2022/08/10 12:24:38;;;;;;;4.38;1.90;;;;;;;23.70;77.14;102589.50;6215594;23;20099;-80
2022/08/10 12:27:10;;;;;;;7.38;1.90;;;;;;;23.73;76.20;102586.25;6215619;23;20260;-80
2022/08/10 12:30:03;;;;;;;2.97;1.85;;;;;;;23.72;76.20;102582.69;6216163;23;20035;-80
2022/08/10 12:32:34;;;;;;;5.60;1.83;;;;;;;23.78;75.97;102592.72;6214814;23;20070;-80
2022/08/10 12:35:05;;;;;;;7.30;2.25;;;;;;;23.71;76.03;102581.03;6214249;23;20303;-81
2022/08/10 12:37:47;;;;;;;4.13;2.03;;;;;;;23.61;75.35;102565.13;6217074;23;20012;-80
2022/08/10 12:40:17;;;;;;;4.47;2.08;;;;;;;23.68;75.67;102592.50;6215954;23;20092;-81
2022/08/10 12:43:02;;;;;;;6.65;2.15;;;;;;;23.61;75.74;102580.78;6221876;23;20032;-81
2022/08/10 12:45:35;;;;;;;4.35;1.70;;;;;;;23.64;75.95;102588.53;6216645;23;20000;-79
2022/08/10 12:48:21;;;;;;;4.43;2.00;;;;;;;23.66;76.16;102580.88;6189406;23;20005;-80
2022/08/10 12:50:51;;;;;;;6.40;1.90;;;;;;;23.76;76.81;102588.53;6215571;23;20284;-80
2022/08/10 12:53:50;;;;;;;6.45;1.88;;;;;;;23.78;77.45;102578.13;6247088;23;20011;-81
2022/08/10 12:56:37;;;;;;;4.32;1.92;;;;;;;23.74;77.42;102569.53;6249038;22;20085;-81
2022/08/10 12:59:09;;;;;;;4.45;1.95;;;;;;;23.94;77.23;102576.50;6245298;23;20000;-79
2022/08/10 13:01:37;;;;;;;3.92;1.70;;;;;;;23.99;76.71;102563.69;6244564;23;20008;-80
2022/08/10 13:04:07;;;;;;;7.47;1.90;;;;;;;24.07;76.58;102576.19;6248849;23;20004;-78
2022/08/10 13:06:35;;;;;;;4.50;1.90;;;;;;;24.10;76.30;102575.69;6248690;22;20102;-80
2022/08/10 13:09:13;;;;;;;3.22;1.85;;;;;;;24.05;76.59;102561.88;6245468;22;20065;-80
2022/08/10 13:12:00;;;;;;;4.30;1.98;;;;;;;24.20;75.82;102575.88;6245942;22;20035;-80
2022/08/10 13:14:35;;;;;;;7.57;2.20;;;;;;;24.00;75.42;102559.03;6247383;22;19996;-77
2022/08/10 13:17:02;;;;;;;3.13;1.80;;;;;;;24.07;74.17;102578.94;6246533;23;20083;-78
2022/08/10 13:19:35;;;;;;;6.65;1.80;;;;;;;23.99;72.87;102555.44;6246270;22;20019;-78
2022/08/10 13:22:01;;;;;;;4.93;1.90;;;;;;;24.02;72.30;102579.69;6248448;22;20054;-80
2022/08/10 13:24:35;;;;;;;4.03;1.70;;;;;;;23.65;74.29;102524.25;6256913;22;20054;-81
2022/08/10 13:27:11;;;;;;;;;;;;;;;23.97;75.13;102576.84;6239106;23;20089;-78
2022/08/10 13:29:46;;;;;;;5.47;1.60;;;;;;;23.72;75.39;102530.47;6249242;22;20274;-77
2022/08/10 13:32:13;;;;;;;4.18;1.60;;;;;;;24.07;75.26;102571.56;6246592;23;20023;-81
2022/08/10 13:34:45;;;;;;;4.97;1.60;;;;;;;24.23;73.48;102571.81;6247557;22;20343;-80
2022/08/10 13:37:15;;;;;;;3.85;1.60;;;;;;;24.28;72.31;102561.75;6246204;23;20008;-80
2022/08/10 13:39:44;;;;;;;4.25;1.80;;;;;;;24.17;71.42;102567.28;6247282;22;20000;-80
2022/08/10 13:42:12;;;;;;;4.43;1.73;;;;;;;24.13;72.36;102547.72;6264468;22;20000;-79
2022/08/10 13:44:42;;;;;;;4.22;1.90;;;;;;;24.05;73.51;102554.44;6262420;22;20010;-80
2022/08/10 13:47:09;;;;;;;6.47;2.10;;;;;;;24.06;75.25;102553.38;6255211;22;20011;-80
2022/08/10 13:50:05;;;;;;;4.25;2.05;;;;;;;24.13;75.88;102551.28;6254125;22;20011;-81
2022/08/10 13:52:31;;;;;;;5.80;2.05;;;;;;;24.10;75.92;102518.78;6248009;22;20027;-80
2022/08/10 13:54:59;;;;;;;4.55;2.10;;;;;;;24.29;75.82;102530.38;6252322;22;20046;-78
2022/08/10 13:57:26;;;;;;;4.32;1.98;;;;;;;24.28;75.82;102539.72;6249261;23;20000;-78
2022/08/10 13:59:54;;;;;;;4.97;1.80;;;;;;;24.32;75.39;102532.63;6249929;22;20398;-78
2022/08/10 14:02:27;;;;;;;3.05;1.75;;;;;;;24.31;75.30;102533.72;6250049;22;20000;-80
2022/08/10 14:04:57;;;;;;;9.55;1.83;;;;;;;24.26;75.70;102514.38;6249887;22;19996;-81
2022/08/10 14:07:26;;;;;;;4.47;1.90;;;;;;;24.26;75.18;102508.88;6250723;22;20004;-80
2022/08/10 14:09:52;;;;;;;4.13;1.90;;;;;;;24.42;74.52;102531.19;6248862;22;20024;-80
2022/08/10 14:12:24;;;;;;;6.72;1.80;;;;;;;24.38;74.92;102526.13;6247805;23;20091;-78
2022/08/10 14:14:50;;;;;;;6.60;1.90;;;;;;;24.44;74.75;102527.09;6247246;22;20035;-80
2022/08/10 14:17:21;;;;;;;4.40;1.80;;;;;;;24.55;75.40;102523.41;6248313;22;20015;-80
2022/08/10 14:19:49;;;;;;;5.00;2.00;;;;;;;24.52;75.74;102523.09;6247157;23;20027;-80
2022/08/10 14:22:18;;;;;;;3.97;1.92;;;;;;;24.46;75.72;102530.41;6248368;22;20008;-80
2022/08/10 14:24:44;;;;;;;6.03;1.95;;;;;;;24.26;75.90;102514.38;6247052;23;20012;-80
2022/08/10 14:27:12;;;;;;;4.80;2.08;;;;;;;24.39;75.93;102530.56;6245938;23;20474;-80
2022/08/10 14:29:44;;;;;;;5.07;1.80;;;;;;;24.42;76.05;102518.25;6248758;22;20000;-80
2022/08/10 14:32:12;;;;;;;4.15;2.00;;;;;;;24.46;76.15;102502.06;6272887;22;20091;-80
2022/08/10 14:34:39;;;;;;;3.97;1.70;;;;;;;24.51;76.55;102516.75;6273721;22;20008;-78
2022/08/10 14:37:13;;;;;;;3.75;1.85;;;;;;;24.60;76.02;102511.63;6222424;23;20004;-80
2022/08/10 14:39:47;;;;;;;5.07;1.98;;;;;;;24.46;75.71;102507.56;6272727;22;20015;-80
2022/08/10 14:42:29;;;;;;;3.90;1.95;;;;;;;24.22;76.42;102485.72;6248290;22;20011;-80
2022/08/10 14:45:00;;;;;;;4.30;2.08;;;;;;;24.56;76.31;102524.25;6247808;22;20050;-81
2022/08/10 14:47:30;;;;;;;4.18;1.98;;;;;;;24.58;76.40;102508.31;6249535;22;20004;-80
2022/08/10 14:49:57;;;;;;;3.33;2.17;;;;;;;24.67;76.40;102514.22;6261588;22;19996;-79
2022/08/10 14:52:25;;;;;;;4.05;1.80;;;;;;;24.62;74.76;102495.72;6278233;22;20035;-78
2022/08/10 14:54:53;;;;;;;6.43;2.03;;;;;;;24.65;74.48;102517.22;6249506;22;20015;-78
2022/08/10 14:57:20;;;;;;;5.90;1.73;;;;;;;24.23;74.20;102470.03;6248369;22;20015;-78
2022/08/10 14:59:48;;;;;;;4.00;2.00;;;;;;;24.18;73.66;102490.03;6249047;22;20051;-78
2022/08/10 15:02:17;;;;;;;4.30;1.55;;;;;;;24.30;73.91;102501.78;6249688;22;20082;-78
2022/08/10 15:04:44;;;;;;;4.47;1.40;;;;;;;24.43;72.42;102521.84;6249459;22;20011;-78
2022/08/10 15:07:32;;;;;;;2.70;1.50;;;;;;;24.29;72.60;102513.88;6248446;23;20008;-78
2022/08/10 15:09:59;;;;;;;5.88;1.77;;;;;;;24.43;73.21;102519.91;6274589;22;20007;-78
2022/08/10 15:12:30;;;;;;;4.50;1.50;;;;;;;24.39;73.26;102510.47;6225457;23;20060;-77
2022/08/10 15:14:59;;;;;;;3.50;1.55;;;;;;;24.43;72.45;102508.91;6268885;22;20043;-78
2022/08/10 15:17:30;;;;;;;3.78;1.67;;;;;;;24.54;72.34;102509.91;6273902;22;20095;-78
2022/08/10 15:19:58;;;;;;;4.65;1.73;;;;;;;24.42;72.69;102507.25;6245902;23;20019;-77
2022/08/10 15:22:25;;;;;;;6.53;1.67;;;;;;;24.43;72.60;102508.06;6271136;22;20329;-78
2022/08/10 15:24:59;;;;;;;5.68;1.80;;;;;;;24.47;72.78;102517.47;6248252;22;20489;-78
2022/08/10 15:27:27;;;;;;;6.53;1.63;;;;;;;24.47;72.80;102492.72;6249972;22;20415;-78
2022/08/10 15:29:54;;;;;;;4.53;1.63;;;;;;;24.47;72.87;102496.34;6249438;22;20035;-78
2022/08/10 15:38:00;;;;;;;6.18;1.65;;;;;;;24.18;74.09;102479.03;6246981;23;20019;-80
2022/08/10 15:40:26;;;;;;;;;;;;;;;24.32;73.92;102496.03;6247296;23;20028;-80
2022/08/10 15:42:57;;;;;;;6.05;1.75;;;;;;;24.41;73.53;102491.00;6246841;22;20316;-80
2022/08/10 15:45:23;;;;;;;2.05;1.30;;;;;;;24.50;73.14;102500.47;6247554;22;20011;-80
2022/08/10 15:47:52;;;;;;;4.68;1.70;;;;;;;24.50;72.56;102492.22;6247710;23;20028;-81
2022/08/10 15:50:20;;;;;;;4.95;1.80;;;;;;;24.38;72.22;102495.88;6246867;23;20000;-80
2022/08/10 15:52:52;;;;;;;4.38;1.70;;;;;;;24.46;71.76;102505.66;6247012;22;20020;-80
2022/08/10 15:55:23;;;;;;;5.30;2.03;;;;;;;24.31;72.13;102472.38;6246587;23;20032;-80
2022/08/10 15:58:00;;;;;;;3.70;1.83;;;;;;;24.58;72.26;102502.81;6248002;22;20279;-80
2022/08/10 16:00:27;;;;;;;4.97;1.80;;;;;;;24.66;72.53;102491.38;6248348;23;20083;-80
2022/08/10 16:03:05;;;;;;;5.03;1.58;;;;;;;24.75;72.21;102486.28;6247358;22;20456;-79
2022/08/10 16:05:40;;;;;;;3.33;1.52;;;;;;;24.84;71.61;102495.78;6246361;23;20406;-79
2022/08/10 16:08:08;;;;;;;3.65;1.55;;;;;;;24.80;72.01;102473.41;6248068;22;20027;-80
2022/08/10 16:10:43;;;;;;;4.55;1.73;;;;;;;24.53;70.96;102442.19;6254070;22;20028;-80
2022/08/10 16:13:11;;;;;;;4.10;1.70;;;;;;;24.68;71.01;102472.69;6251710;22;20007;-80
2022/08/10 16:15:39;;;;;;;4.57;1.67;;;;;;;24.65;70.83;102478.69;6246689;22;20043;-81
2022/08/10 16:18:13;;;;;;;4.65;1.55;;;;;;;24.55;71.41;102454.59;6247324;22;20382;-79
2022/08/10 16:20:47;;;;;;;5.43;1.60;;;;;;;24.92;71.02;102475.22;6246398;22;20417;-79
2022/08/10 16:23:15;;;;;;;;;;;;;;;24.85;71.44;102481.72;6272348;22;20010;-78
2022/08/10 16:25:46;;;;;;;7.28;1.90;;;;;;;24.73;70.66;102471.91;6297976;22;19904;-79
2022/08/10 16:28:12;;;;;;;4.47;1.85;;;;;;;24.45;71.87;102454.47;6247812;22;20000;-78
2022/08/10 16:30:40;;;;;;;5.22;1.83;;;;;;;24.49;72.47;102463.03;6247601;23;20015;-80
2022/08/10 16:33:09;;;;;;;4.28;1.80;;;;;;;24.59;72.10;102466.78;6260442;22;19992;-80
2022/08/10 16:35:37;;;;;;;5.15;1.60;;;;;;;24.51;72.44;102458.13;6261733;22;20452;-79
2022/08/10 16:38:03;;;;;;;5.40;1.88;;;;;;;24.52;72.18;102446.84;6261821;22;20022;-79
2022/08/10 16:40:30;;;;;;;6.63;1.60;;;;;;;24.60;72.52;102442.81;6268408;22;20004;-79
2022/08/10 16:42:57;;;;;;;4.05;1.60;;;;;;;24.72;72.56;102440.81;6259820;22;20086;-79
2022/08/10 16:45:37;;;;;;;3.60;1.70;;;;;;;24.45;73.24;102429.69;6249844;23;20008;-80
2022/08/10 16:48:04;;;;;;;4.43;1.75;;;;;;;24.27;73.77;102436.28;6272132;22;19997;-79
2022/08/10 16:50:37;;;;;;;3.95;1.63;;;;;;;24.29;74.44;102438.78;6246652;23;20758;-80
2022/08/10 16:53:06;;;;;;;5.10;1.90;;;;;;;24.24;74.57;102427.69;6253041;23;20028;-80
2022/08/10 16:55:35;;;;;;;5.40;1.90;;;;;;;24.21;74.64;102431.78;6247743;22;20008;-80
2022/08/10 16:58:01;;;;;;;4.00;1.80;;;;;;;24.03;75.48;102437.53;6260210;22;20057;-80
2022/08/10 17:00:28;;;;;;;5.07;1.90;;;;;;;23.86;76.78;102435.59;6267958;22;20406;-80
2022/08/10 17:03:07;;;;;;;5.43;2.00;;;;;;;23.84;76.23;102421.28;6263830;22;20030;-80
2022/08/10 17:05:34;;;;;;;6.05;2.00;;;;;;;23.64;76.98;102415.38;6250337;22;20007;-80
2022/08/10 17:08:12;;;;;;;6.93;2.20;;;;;;;23.52;77.03;102393.47;6248977;22;20004;-80
2022/08/10 17:10:40;;;;;;;4.22;1.70;;;;;;;23.64;76.95;102418.13;6246705;23;20071;-79
2022/08/10 17:13:08;;;;;;;6.43;1.90;;;;;;;23.55;77.49;102403.16;6222724;22;20019;-79
2022/08/10 17:15:36;;;;;;;6.50;2.72;;;;;;;23.51;78.38;102402.81;6262448;22;20062;-79
2022/08/10 17:18:03;;;;;;;9.10;2.40;;;;;;;23.45;78.91;102403.81;6266680;22;20009;-80
2022/08/10 17:20:32;;;;;;;6.30;1.90;;;;;;;23.26;80.00;102388.59;6273456;22;20008;-80
2022/08/10 17:23:01;;;;;;;6.13;1.88;;;;;;;23.04;80.94;102378.28;6253663;22;20023;-81
2022/08/10 17:25:32;;;;;;;4.82;1.98;;;;;;;22.99;81.95;102391.94;6251340;22;20022;-81
2022/08/10 17:27:59;;;;;;;5.15;2.10;;;;;;;23.12;82.08;102394.38;6251178;22;20019;-80
2022/08/10 17:30:28;;;;;;;5.22;2.00;;;;;;;23.23;82.34;102386.34;6256687;22;20433;-81
2022/08/10 17:33:09;;;;;;;4.47;2.22;;;;;;;23.14;82.19;102383.16;6262266;23;20020;-80
2022/08/10 17:35:38;;;;;;;4.10;2.05;;;;;;;23.07;83.29;102386.03;6282713;22;20011;-80
2022/08/10 17:38:11;;;;;;;4.65;1.95;;;;;;;23.01;83.96;102387.00;6254585;22;20101;-80
2022/08/10 17:40:52;;;;;;;7.38;2.38;;;;;;;22.90;85.11;102388.69;6249933;22;20071;-81
2022/08/10 17:43:29;;;;;;;5.05;2.40;;;;;;;22.82;85.38;102377.28;6248825;22;20015;-79
2022/08/10 17:45:56;;;;;;;6.13;2.40;;;;;;;22.76;86.71;102390.06;6247915;23;20291;-79
2022/08/10 17:48:31;;;;;;;5.28;1.95;;;;;;;22.79;87.45;102389.56;6249611;22;20023;-80
2022/08/10 17:50:56;;;;;;;;;;;;;;;22.79;87.54;102386.00;6252705;22;20008;-81
2022/08/10 17:53:50;;;;;;;5.78;2.47;;;;;;;22.73;87.55;102385.03;6252024;22;19925;-79
2022/08/10 17:56:21;;;;;;;6.10;2.55;;;;;;;22.72;87.52;102384.22;6250044;23;20008;-78
2022/08/10 17:59:09;;;;;;;5.25;2.67;;;;;;;22.71;87.43;102387.19;6245717;23;20004;-79
2022/08/10 18:01:36;;;;;;;5.32;2.45;;;;;;;22.45;88.58;102356.47;6246223;22;20004;-79
2022/08/10 18:04:11;;;;;;;5.65;2.33;;;;;;;22.46;89.08;102377.34;6245659;23;20023;-79
2022/08/10 18:06:37;;;;;;;4.90;2.30;;;;;;;22.52;88.86;102379.13;6243943;23;20008;-79
2022/08/10 18:09:08;;;;;;;6.15;2.40;;;;;;;22.40;88.78;102364.59;6245098;23;20012;-80
2022/08/10 18:11:41;;;;;;;4.00;2.20;;;;;;;22.44;89.50;102393.19;6245621;23;20031;-80
2022/08/10 18:14:08;;;;;;;7.93;2.35;;;;;;;22.32;90.04;102362.22;6246960;22;20390;-79
2022/08/10 18:16:34;;;;;;;4.70;2.15;;;;;;;22.37;90.91;102381.53;6246470;22;20011;-79
2022/08/10 18:19:10;;;;;;;5.88;2.30;;;;;;;22.28;91.66;102386.56;6247475;23;20004;-81
2022/08/10 18:21:45;;;;;;;4.88;2.53;;;;;;;22.27;91.51;102387.59;6254522;22;20329;-81
2022/08/10 18:24:17;;;;;;;8.48;2.83;;;;;;;22.16;91.90;102387.63;6252345;22;20008;-79
2022/08/10 18:26:45;;;;;;;6.75;2.80;;;;;;;22.16;92.72;102398.59;6246706;22;20000;-79
2022/08/10 18:29:17;;;;;;;6.03;2.47;;;;;;;22.07;93.00;102394.50;6246685;22;20007;-78
2022/08/10 18:31:43;;;;;;;5.47;2.40;;;;;;;21.90;94.31;102381.50;6246167;22;20280;-78
2022/08/10 18:34:14;;;;;;;7.85;2.60;;;;;;;21.83;94.43;102375.28;6246760;23;20004;-78
2022/08/10 18:36:42;;;;;;;6.50;2.60;;;;;;;21.88;94.17;102389.09;6246422;22;20284;-78
2022/08/10 18:39:11;;;;;;;5.45;2.53;;;;;;;21.47;95.04;102341.50;6272025;22;20011;-78
2022/08/10 18:41:38;;;;;;;8.18;2.50;;;;;;;21.71;95.73;102397.19;6247905;23;20008;-78
2022/08/10 18:44:09;;;;;;;5.85;2.40;;;;;;;21.58;96.32;102391.91;6252417;22;20331;-78
2022/08/10 18:46:46;;;;;;;7.95;2.65;;;;;;;21.29;96.82;102368.91;6249832;22;20008;-78
2022/08/10 18:49:25;;;;;;;5.57;2.78;;;;;;;21.33;97.61;102394.78;6246853;22;20087;-77
2022/08/10 18:51:56;;;;;;;4.95;2.80;;;;;;;21.11;98.71;102384.31;6245595;22;20032;-78
2022/08/10 18:54:31;;;;;;;5.80;3.08;;;;;;;21.05;99.24;102401.66;6247239;22;20097;-78
2022/08/10 18:56:59;;;;;;;7.15;2.60;;;;;;;20.97;100.00;102404.72;6246180;23;20007;-78
2022/08/10 18:59:47;;;;;;;7.65;2.65;;;;;;;20.92;100.00;102406.47;6247126;22;20027;-78
2022/08/10 19:02:12;;;;;;;5.25;2.55;;;;;;;20.76;100.00;102399.72;6246245;22;20015;-78
2022/08/10 19:05:13;;;;;;;7.05;2.63;;;;;;;20.61;100.00;102400.09;6246711;23;20000;-78
2022/08/10 19:08:03;;;;;;;6.13;2.85;;;;;;;20.36;100.00;102402.84;6241946;23;20008;-78
2022/08/10 19:10:44;;;;;;;7.70;2.90;;;;;;;20.14;100.00;102395.06;6270897;22;20047;-78
2022/08/10 19:13:18;;;;;;;6.95;2.70;;;;;;;20.00;100.00;102390.81;6248851;23;20078;-79
2022/08/10 19:16:02;;;;;;;;;;;;;;;19.94;100.00;102402.63;6245515;23;20356;-78
2022/08/10 19:18:36;;;;;;;8.38;3.30;;;;;;;19.75;100.00;102388.03;6245608;23;19918;-78
2022/08/10 19:21:13;;;;;;;5.97;3.00;;;;;;;19.77;100.00;102399.59;6247839;22;20008;-78
2022/08/10 19:24:11;;;;;;;9.00;3.28;;;;;;;19.59;100.00;102380.34;6246794;23;20226;-78
2022/08/10 19:27:14;;;;;;;7.57;3.00;;;;;;;19.57;100.00;102396.97;6246162;23;20402;-78
2022/08/10 19:29:51;;;;;;;6.88;3.05;;;;;;;19.53;100.00;102398.44;6226522;22;20004;-78
2022/08/10 19:32:26;;;;;;;6.68;3.00;;;;;;;19.45;100.00;102404.19;6247519;22;20054;-78
2022/08/10 19:35:23;;;;;;;8.52;3.00;;;;;;;19.36;100.00;102386.38;6247156;22;20111;-78
2022/08/10 19:38:24;;;;;;;6.72;3.08;;;;;;;19.32;100.00;102398.81;6269383;22;20389;-78
2022/08/10 19:40:51;;;;;;;9.98;3.30;;;;;;;19.23;100.00;102399.03;6244213;23;20098;-78
2022/08/10 19:43:28;;;;;;;6.43;3.60;;;;;;;19.14;100.00;102389.47;6247092;22;20398;-78
2022/08/10 19:46:10;;;;;;;7.65;3.50;;;;;;;19.14;100.00;102396.78;6245165;22;20000;-78
2022/08/10 19:48:47;;;;;;;5.43;3.00;;;;;;;19.10;100.00;102401.00;6242307;23;20011;-78
2022/08/10 19:51:21;;;;;;;6.22;2.97;;;;;;;18.90;100.00;102371.91;6270444;22;20422;-77
2022/08/10 19:54:07;;;;;;;8.98;3.45;;;;;;;19.04;100.00;102400.00;6247047;22;20498;-78
2022/08/10 19:57:03;;;;;;;6.85;3.42;;;;;;;18.98;100.00;102390.78;6271271;22;20363;-78
2022/08/10 19:59:39;;;;;;;7.53;3.50;;;;;;;18.90;100.00;102393.75;6250193;23;20004;-78
2022/08/10 20:02:16;;;;;;;6.97;3.25;;;;;;;18.86;100.00;102389.78;6249143;23;20004;-78
2022/08/10 20:05:01;;;;;;;7.20;3.53;;;;;;;18.82;100.00;102388.53;6246148;23;20004;-78
2022/08/10 20:07:34;;;;;;;5.70;3.35;;;;;;;18.74;100.00;102386.91;6245594;22;20679;-78
2022/08/10 20:10:25;;;;;;;8.82;3.60;;;;;;;18.63;100.00;102371.16;6246769;22;20000;-78
2022/08/10 20:13:07;;;;;;;8.65;3.70;;;;;;;18.62;100.00;102368.66;6242913;23;20003;-78
2022/08/10 20:15:45;;;;;;;6.70;3.08;;;;;;;18.48;100.00;102346.88;6244936;22;20085;-78
2022/08/10 20:18:21;;;;;;;6.50;3.17;;;;;;;18.53;100.00;102352.53;6247150;22;20004;-78
2022/08/10 20:20:48;;;;;;;7.68;2.90;;;;;;;18.64;100.00;102383.75;6245157;22;20078;-78
2022/08/10 20:23:31;;;;;;;7.20;3.50;;;;;;;18.48;100.00;102352.34;6244860;23;20015;-78
2022/08/10 20:26:13;;;;;;;6.00;3.42;;;;;;;18.58;100.00;102383.78;6257095;23;19992;-78
2022/08/10 20:28:42;;;;;;;6.90;3.17;;;;;;;18.28;100.00;102332.47;6252934;22;20016;-77
2022/08/10 20:31:40;;;;;;;5.78;3.55;;;;;;;18.61;100.00;102391.50;6267366;22;20015;-78
2022/08/10 20:34:24;;;;;;;7.85;3.33;;;;;;;18.59;100.00;102393.63;6212706;22;20011;-78
2022/08/10 20:37:05;;;;;;;6.93;3.50;;;;;;;18.51;100.00;102372.91;6268516;22;20008;-78
2022/08/10 20:40:03;;;;;;;6.80;3.33;;;;;;;18.55;100.00;102385.88;6244003;22;20001;-78
2022/08/10 20:42:47;;;;;;;6.88;3.60;;;;;;;18.55;100.00;102387.75;6268259;22;20077;-79
2022/08/10 20:45:24;;;;;;;7.32;3.60;;;;;;;18.41;100.00;102361.56;6244625;23;20015;-78
2022/08/10 20:48:19;;;;;;;7.43;3.80;;;;;;;18.58;100.00;102387.34;6244276;22;20023;-78
2022/08/10 20:51:01;;;;;;;10.98;3.88;;;;;;;18.46;100.00;102370.78;6269914;22;20008;-77
2022/08/10 20:53:52;;;;;;;6.75;3.55;;;;;;;18.54;100.00;102392.38;6243844;22;20016;-78
2022/08/10 20:56:54;;;;;;;8.55;3.70;;;;;;;18.54;100.00;102383.34;6246492;22;20004;-77
2022/08/10 20:59:42;;;;;;;6.85;3.60;;;;;;;18.50;100.00;102382.94;6245482;22;20017;-78
2022/08/10 21:02:56;;;;;;;6.47;3.70;;;;;;;18.55;100.00;102387.75;6245650;22;20000;-78
2022/08/10 21:05:33;;;;;;;6.30;3.60;;;;;;;18.43;100.00;102364.94;6217308;23;20019;-78
2022/08/10 21:08:15;;;;;;;10.23;4.03;;;;;;;18.47;100.00;102363.44;6244638;22;20091;-78
2022/08/10 21:10:59;;;;;;;8.15;3.80;;;;;;;18.56;100.00;102381.25;6269633;22;20008;-78
2022/08/10 21:13:40;;;;;;;6.80;3.50;;;;;;;18.53;100.00;102378.94;6250968;23;20293;-78
2022/08/10 21:16:17;;;;;;;5.05;3.42;;;;;;;18.50;100.00;102379.38;6246663;23;20221;-78
2022/08/10 21:19:01;;;;;;;10.10;3.60;;;;;;;18.49;100.00;102369.53;6249128;22;20011;-78
2022/08/10 21:21:54;;;;;;;5.47;3.10;;;;;;;18.50;100.00;102372.03;6249295;22;20000;-78
2022/08/10 21:24:37;;;;;;;7.22;3.15;;;;;;;18.45;100.00;102365.56;6243179;23;20031;-77
2022/08/10 22:51:53;;;;;;;5.25;1.80;;;;;;;17.66;100.00;102359.09;6243499;22;20020;-78
2022/08/10 23:00:14;;;;;;;9.75;2.03;;;;;;;17.57;100.00;102366.63;6243885;23;20082;-78
2022/08/10 23:02:48;;;;;;;5.85;1.70;;;;;;;17.58;100.00;102365.59;6244835;23;20026;-78
2022/08/10 23:05:15;;;;;;;9.93;1.73;;;;;;;17.56;100.00;102361.41;6269372;22;20417;-79
2022/08/10 23:07:53;;;;;;;7.13;1.77;;;;;;;17.53;100.00;102357.19;6244016;22;20083;-79
2022/08/10 23:10:23;;;;;;;6.57;1.80;;;;;;;17.43;100.00;102345.03;6243946;23;20008;-78
2022/08/10 23:12:56;;;;;;;5.93;1.50;;;;;;;17.48;100.00;102356.13;6268963;22;20019;-78
2022/08/10 23:21:16;;;;;;;4.75;1.70;;;;;;;17.37;100.00;102347.53;6245422;22;20069;-78
2022/08/10 23:23:44;;;;;;;6.28;1.90;;;;;;;17.32;100.00;102338.34;6269572;22;20050;-78
2022/08/10 23:26:14;;;;;;;8.38;2.00;;;;;;;17.28;100.00;102326.16;6252053;22;20015;-78
2022/08/10 23:28:42;;;;;;;7.63;1.80;;;;;;;17.42;100.00;102359.69;6244730;23;19996;-78
2022/08/10 23:31:11;;;;;;;7.03;1.80;;;;;;;17.41;100.00;102363.44;6245762;22;20007;-78
2022/08/10 23:33:37;;;;;;;5.30;2.00;;;;;;;17.36;100.00;102362.19;6243895;23;20008;-77
2022/08/10 23:36:06;;;;;;;9.93;2.20;;;;;;;17.44;100.00;102365.75;6269576;22;20402;-78
2022/08/10 23:38:34;;;;;;;12.25;1.80;;;;;;;17.28;100.00;102340.59;6243676;23;20018;-79
2022/08/10 23:41:02;;;;;;;7.18;1.83;;;;;;;17.18;100.00;102328.44;6244046;23;20008;-78
2022/08/10 23:43:30;;;;;;;6.93;2.00;;;;;;;17.39;100.00;102363.66;6268621;22;20425;-79
2022/08/10 23:45:59;;;;;;;11.93;2.50;;;;;;;17.38;100.00;102362.84;6244653;22;20015;-78
2022/08/10 23:48:36;;;;;;;6.00;2.10;;;;;;;17.13;100.00;102320.91;6244489;22;20004;-79
2022/08/10 23:51:09;;;;;;;8.43;2.35;;;;;;;17.18;100.00;102332.00;6244563;23;20023;-79
2022/08/10 23:53:37;;;;;;;9.35;2.13;;;;;;;17.35;100.00;102360.53;6240790;22;20070;-78
2022/08/10 23:56:10;;;;;;;6.95;2.20;;;;;;;17.34;100.00;102363.44;6270718;22;20406;-78
2022/08/10 23:58:43;;;;;;;6.80;1.90;;;;;;;17.32;100.00;102355.50;6271981;22;20010;-78
